sensor_id;sensor_type;location;lat;lon;timestamp;pressure;altitude;pressure_sealevel;temperature;humidity
43394;BME280;62479;62.642;17.954;2022-08-25T00:02:15;102706.73;;;10.68;76.48
43394;BME280;62479;62.642;17.954;2022-08-25T00:41:24;102708.15;;;10.64;76.22
43394;BME280;62479;62.642;17.954;2022-08-25T00:43:56;102711.93;;;10.79;76.53
43394;BME280;62479;62.642;17.954;2022-08-25T00:46:28;102709.20;;;10.90;76.94
43394;BME280;62479;62.642;17.954;2022-08-25T00:49:00;102711.29;;;11.01;76.37
43394;BME280;62479;62.642;17.954;2022-08-25T00:51:36;102715.34;;;10.88;76.44
43394;BME280;62479;62.642;17.954;2022-08-25T04:03:26;102697.29;;;11.14;78.85
43394;BME280;62479;62.642;17.954;2022-08-25T04:06:00;102692.77;;;11.08;78.83
43394;BME280;62479;62.642;17.954;2022-08-25T04:08:30;102688.63;;;11.37;78.66
43394;BME280;62479;62.642;17.954;2022-08-25T04:11:05;102692.64;;;11.40;78.67
43394;BME280;62479;62.642;17.954;2022-08-25T04:13:35;102689.37;;;11.55;78.38
43394;BME280;62479;62.642;17.954;2022-08-25T04:16:09;102690.85;;;11.76;78.07
43394;BME280;62479;62.642;17.954;2022-08-25T04:18:39;102690.46;;;11.89;77.49
43394;BME280;62479;62.642;17.954;2022-08-25T04:21:09;102688.08;;;12.08;77.95
43394;BME280;62479;62.642;17.954;2022-08-25T04:23:42;102685.72;;;12.23;77.29
43394;BME280;62479;62.642;17.954;2022-08-25T04:26:13;102688.50;;;12.42;76.58
43394;BME280;62479;62.642;17.954;2022-08-25T04:28:42;102689.55;;;12.60;75.90
43394;BME280;62479;62.642;17.954;2022-08-25T04:31:12;102686.92;;;12.71;75.33
43394;BME280;62479;62.642;17.954;2022-08-25T04:33:41;102686.31;;;12.78;75.22
43394;BME280;62479;62.642;17.954;2022-08-25T04:36:10;102684.49;;;12.67;74.99
43394;BME280;62479;62.642;17.954;2022-08-25T04:38:40;102681.35;;;12.74;75.00
43394;BME280;62479;62.642;17.954;2022-08-25T04:41:11;102681.43;;;12.85;74.66
43394;BME280;62479;62.642;17.954;2022-08-25T04:43:42;102682.75;;;12.96;74.86
43394;BME280;62479;62.642;17.954;2022-08-25T04:46:14;102682.23;;;13.09;74.15
43394;BME280;62479;62.642;17.954;2022-08-25T04:48:44;102677.58;;;13.09;73.88
43394;BME280;62479;62.642;17.954;2022-08-25T04:51:23;102674.38;;;13.31;73.41
43394;BME280;62479;62.642;17.954;2022-08-25T04:53:54;102671.76;;;13.42;73.30
43394;BME280;62479;62.642;17.954;2022-08-25T04:56:23;102663.49;;;13.32;73.35
43394;BME280;62479;62.642;17.954;2022-08-25T04:58:54;102658.73;;;13.51;73.52
43394;BME280;62479;62.642;17.954;2022-08-25T05:01:25;102654.76;;;13.82;73.03
43394;BME280;62479;62.642;17.954;2022-08-25T05:04:03;102652.86;;;14.10;72.38
43394;BME280;62479;62.642;17.954;2022-08-25T05:06:33;102653.02;;;14.25;71.40
43394;BME280;62479;62.642;17.954;2022-08-25T05:09:01;102651.52;;;14.43;70.89
43394;BME280;62479;62.642;17.954;2022-08-25T05:11:31;102650.31;;;14.47;70.57
43394;BME280;62479;62.642;17.954;2022-08-25T05:14:02;102650.24;;;14.55;70.42
43394;BME280;62479;62.642;17.954;2022-08-25T05:16:31;102649.12;;;14.61;70.05
43394;BME280;62479;62.642;17.954;2022-08-25T05:18:59;102647.55;;;14.66;70.32
43394;BME280;62479;62.642;17.954;2022-08-25T05:21:28;102647.76;;;14.71;70.78
43394;BME280;62479;62.642;17.954;2022-08-25T05:23:58;102655.04;;;14.70;70.66
43394;BME280;62479;62.642;17.954;2022-08-25T05:26:30;102656.11;;;14.96;70.29
43394;BME280;62479;62.642;17.954;2022-08-25T05:29:01;102655.03;;;15.11;69.74
43394;BME280;62479;62.642;17.954;2022-08-25T05:31:31;102653.05;;;15.19;69.30
43394;BME280;62479;62.642;17.954;2022-08-25T05:34:04;102657.07;;;15.25;69.31
43394;BME280;62479;62.642;17.954;2022-08-25T05:36:33;102659.40;;;15.24;68.84
43394;BME280;62479;62.642;17.954;2022-08-25T05:39:03;102658.75;;;15.29;68.79
43394;BME280;62479;62.642;17.954;2022-08-25T05:41:32;102662.39;;;15.37;68.47
43394;BME280;62479;62.642;17.954;2022-08-25T05:44:00;102658.70;;;15.52;68.84
43394;BME280;62479;62.642;17.954;2022-08-25T05:47:21;102662.16;;;15.80;68.28
43394;BME280;62479;62.642;17.954;2022-08-25T05:49:52;102665.12;;;16.17;67.05
43394;BME280;62479;62.642;17.954;2022-08-25T05:52:59;102667.21;;;16.12;66.85
43394;BME280;62479;62.642;17.954;2022-08-25T05:56:29;102662.77;;;15.75;67.56
43394;BME280;62479;62.642;17.954;2022-08-25T05:59:12;102663.84;;;15.40;68.69
43394;BME280;62479;62.642;17.954;2022-08-25T06:01:42;102662.83;;;15.18;69.57
43394;BME280;62479;62.642;17.954;2022-08-25T06:03:44;102659.57;;;15.09;70.53
43394;BME280;62479;62.642;17.954;2022-08-25T06:06:22;102662.31;;;15.19;71.01
43394;BME280;62479;62.642;17.954;2022-08-25T06:12:18;102665.80;;;15.19;71.48
43394;BME280;62479;62.642;17.954;2022-08-25T06:14:50;102667.97;;;15.40;70.76
43394;BME280;62479;62.642;17.954;2022-08-25T06:18:25;102669.60;;;15.58;70.56
43394;BME280;62479;62.642;17.954;2022-08-25T06:20:56;102664.26;;;15.70;69.98
43394;BME280;62479;62.642;17.954;2022-08-25T06:24:28;102662.72;;;16.07;69.91
43394;BME280;62479;62.642;17.954;2022-08-25T06:26:59;102661.83;;;16.46;68.36
43394;BME280;62479;62.642;17.954;2022-08-25T06:29:30;102658.56;;;17.50;65.77
43394;BME280;62479;62.642;17.954;2022-08-25T06:32:26;102649.74;;;20.74;57.16
43394;BME280;62479;62.642;17.954;2022-08-25T06:34:55;102639.85;;;24.26;48.92
43394;BME280;62479;62.642;17.954;2022-08-25T06:37:29;102626.65;;;27.49;41.98
43394;BME280;62479;62.642;17.954;2022-08-25T06:40:37;102624.07;;;29.38;37.46
43394;BME280;62479;62.642;17.954;2022-08-25T06:43:27;102624.33;;;30.83;33.67
43394;BME280;62479;62.642;17.954;2022-08-25T06:47:49;102615.36;;;31.61;31.43
43394;BME280;62479;62.642;17.954;2022-08-25T06:51:19;102610.92;;;32.11;29.04
43394;BME280;62479;62.642;17.954;2022-08-25T06:53:51;102611.85;;;31.80;30.30
43394;BME280;62479;62.642;17.954;2022-08-25T06:57:18;102612.31;;;32.97;27.92
43394;BME280;62479;62.642;17.954;2022-08-25T07:00:21;102614.23;;;33.25;27.47
43394;BME280;62479;62.642;17.954;2022-08-25T07:04:12;102610.99;;;33.73;27.07
43394;BME280;62479;62.642;17.954;2022-08-25T07:07:42;102610.07;;;34.05;26.57
43394;BME280;62479;62.642;17.954;2022-08-25T07:12:22;102613.64;;;34.01;26.04
43394;BME280;62479;62.642;17.954;2022-08-25T07:14:54;102611.34;;;34.03;27.05
43394;BME280;62479;62.642;17.954;2022-08-25T07:18:40;102611.26;;;35.06;25.17
43394;BME280;62479;62.642;17.954;2022-08-25T07:22:10;102610.45;;;34.87;25.18
43394;BME280;62479;62.642;17.954;2022-08-25T07:28:55;102602.78;;;34.18;25.91
43394;BME280;62479;62.642;17.954;2022-08-25T07:33:04;102603.22;;;35.30;25.29
43394;BME280;62479;62.642;17.954;2022-08-25T07:35:36;102607.10;;;35.28;24.39
43394;BME280;62479;62.642;17.954;2022-08-25T07:39:51;102606.61;;;35.41;24.51
43394;BME280;62479;62.642;17.954;2022-08-25T07:43:01;102607.40;;;35.68;24.20
43394;BME280;62479;62.642;17.954;2022-08-25T07:45:34;102608.32;;;35.07;24.98
43394;BME280;62479;62.642;17.954;2022-08-25T07:48:40;102610.35;;;35.54;24.63
43394;BME280;62479;62.642;17.954;2022-08-25T07:51:43;102603.07;;;36.32;24.18
43394;BME280;62479;62.642;17.954;2022-08-25T07:55:12;102601.74;;;37.59;22.17
43394;BME280;62479;62.642;17.954;2022-08-25T08:01:35;102599.64;;;36.28;23.17
43394;BME280;62479;62.642;17.954;2022-08-25T08:04:44;102607.89;;;35.69;23.40
43394;BME280;62479;62.642;17.954;2022-08-25T08:07:17;102611.82;;;34.84;24.42
43394;BME280;62479;62.642;17.954;2022-08-25T08:08:33;102612.71;;;34.79;24.68
43394;BME280;62479;62.642;17.954;2022-08-25T08:11:28;102609.25;;;34.35;25.22
43394;BME280;62479;62.642;17.954;2022-08-25T08:13:57;102606.22;;;34.47;25.27
43394;BME280;62479;62.642;17.954;2022-08-25T08:16:29;102603.10;;;34.31;25.13
43394;BME280;62479;62.642;17.954;2022-08-25T08:18:59;102602.52;;;33.62;26.32
43394;BME280;62479;62.642;17.954;2022-08-25T08:21:30;102601.93;;;34.26;25.80
43394;BME280;62479;62.642;17.954;2022-08-25T08:24:06;102603.74;;;35.04;24.88
43394;BME280;62479;62.642;17.954;2022-08-25T08:26:35;102606.47;;;34.57;24.86
43394;BME280;62479;62.642;17.954;2022-08-25T08:29:04;102600.98;;;33.99;26.04
43394;BME280;62479;62.642;17.954;2022-08-25T08:31:33;102606.70;;;34.77;24.93
43394;BME280;62479;62.642;17.954;2022-08-25T08:34:01;102606.92;;;33.77;26.35
43394;BME280;62479;62.642;17.954;2022-08-25T08:36:30;102599.37;;;33.56;26.49
43394;BME280;62479;62.642;17.954;2022-08-25T08:38:58;102600.26;;;33.76;26.57
43394;BME280;62479;62.642;17.954;2022-08-25T08:41:39;102600.28;;;33.22;26.79
43394;BME280;62479;62.642;17.954;2022-08-25T08:44:19;102593.19;;;33.59;26.98
43394;BME280;62479;62.642;17.954;2022-08-25T08:46:58;102594.98;;;33.69;26.94
43394;BME280;62479;62.642;17.954;2022-08-25T08:49:35;102597.37;;;33.69;26.30
43394;BME280;62479;62.642;17.954;2022-08-25T08:52:06;102592.82;;;32.79;27.16
43394;BME280;62479;62.642;17.954;2022-08-25T08:54:38;102592.45;;;32.74;27.77
43394;BME280;62479;62.642;17.954;2022-08-25T08:57:17;102598.36;;;32.70;27.56
43394;BME280;62479;62.642;17.954;2022-08-25T08:59:52;102596.42;;;32.62;27.63
43394;BME280;62479;62.642;17.954;2022-08-25T09:02:32;102598.24;;;31.97;28.33
43394;BME280;62479;62.642;17.954;2022-08-25T09:05:07;102595.80;;;32.12;28.17
43394;BME280;62479;62.642;17.954;2022-08-25T09:07:41;102601.13;;;31.37;28.93
43394;BME280;62479;62.642;17.954;2022-08-25T09:10:15;102594.01;;;31.41;29.53
43394;BME280;62479;62.642;17.954;2022-08-25T09:12:51;102595.08;;;31.64;29.25
43394;BME280;62479;62.642;17.954;2022-08-25T09:15:35;102602.40;;;30.35;30.18
43394;BME280;62479;62.642;17.954;2022-08-25T09:18:13;102606.08;;;27.86;34.26
43394;BME280;62479;62.642;17.954;2022-08-25T09:20:56;102606.52;;;28.39;33.97
43394;BME280;62479;62.642;17.954;2022-08-25T09:23:33;102599.81;;;27.66;34.30
43394;BME280;62479;62.642;17.954;2022-08-25T09:26:18;102612.27;;;25.40;38.08
43394;BME280;62479;62.642;17.954;2022-08-25T09:28:51;102610.86;;;25.49;39.11
43394;BME280;62479;62.642;17.954;2022-08-25T09:31:24;102596.56;;;26.66;37.46
43394;BME280;62479;62.642;17.954;2022-08-25T09:33:57;102595.92;;;26.25;37.26
43394;BME280;62479;62.642;17.954;2022-08-25T09:36:28;102591.94;;;24.57;40.13
43394;BME280;62479;62.642;17.954;2022-08-25T09:38:59;102601.80;;;23.68;42.41
43394;BME280;62479;62.642;17.954;2022-08-25T09:41:43;102597.53;;;22.82;44.59
43394;BME280;62479;62.642;17.954;2022-08-25T09:44:21;102603.74;;;21.93;47.83
43394;BME280;62479;62.642;17.954;2022-08-25T09:47:00;102604.21;;;21.49;49.01
43394;BME280;62479;62.642;17.954;2022-08-25T09:49:34;102599.51;;;22.01;48.62
43394;BME280;62479;62.642;17.954;2022-08-25T09:52:37;102604.89;;;23.91;44.36
43394;BME280;62479;62.642;17.954;2022-08-25T09:55:27;102597.81;;;26.28;39.95
43394;BME280;62479;62.642;17.954;2022-08-25T09:57:59;102588.57;;;28.05;36.92
43394;BME280;62479;62.642;17.954;2022-08-25T10:03:21;102581.11;;;30.13;32.99
43394;BME280;62479;62.642;17.954;2022-08-25T10:06:02;102576.89;;;30.94;31.57
43394;BME280;62479;62.642;17.954;2022-08-25T10:08:52;102569.06;;;32.06;29.83
43394;BME280;62479;62.642;17.954;2022-08-25T10:11:34;102564.87;;;32.65;28.21
43394;BME280;62479;62.642;17.954;2022-08-25T10:15:17;102564.07;;;32.65;27.99
43394;BME280;62479;62.642;17.954;2022-08-25T10:17:53;102557.31;;;32.24;28.24
43394;BME280;62479;62.642;17.954;2022-08-25T10:20:25;102566.68;;;32.26;28.07
43394;BME280;62479;62.642;17.954;2022-08-25T10:23:52;102563.95;;;32.28;28.19
43394;BME280;62479;62.642;17.954;2022-08-25T10:27:24;102562.96;;;32.43;27.93
43394;BME280;62479;62.642;17.954;2022-08-25T10:30:11;102558.93;;;32.34;28.27
43394;BME280;62479;62.642;17.954;2022-08-25T10:33:24;102550.03;;;32.58;27.77
43394;BME280;62479;62.642;17.954;2022-08-25T10:37:02;102543.20;;;33.05;27.40
43394;BME280;62479;62.642;17.954;2022-08-25T10:39:39;102541.42;;;33.77;27.25
43394;BME280;62479;62.642;17.954;2022-08-25T10:43:19;102542.84;;;33.82;25.41
43394;BME280;62479;62.642;17.954;2022-08-25T10:46:55;102548.00;;;33.01;26.51
43394;BME280;62479;62.642;17.954;2022-08-25T10:50:30;102543.85;;;32.94;27.09
43394;BME280;62479;62.642;17.954;2022-08-25T10:53:13;102539.94;;;33.22;27.11
43394;BME280;62479;62.642;17.954;2022-08-25T10:56:51;102540.55;;;32.86;27.21
43394;BME280;62479;62.642;17.954;2022-08-25T11:00:10;102541.75;;;31.79;28.22
43394;BME280;62479;62.642;17.954;2022-08-25T11:03:05;102544.23;;;31.04;28.83
43394;BME280;62479;62.642;17.954;2022-08-25T11:05:42;102551.91;;;30.02;30.69
43394;BME280;62479;62.642;17.954;2022-08-25T11:08:19;102548.22;;;29.39;31.78
43394;BME280;62479;62.642;17.954;2022-08-25T11:10:55;102541.92;;;28.78;32.44
43394;BME280;62479;62.642;17.954;2022-08-25T11:13:35;102544.17;;;28.39;32.80
43394;BME280;62479;62.642;17.954;2022-08-25T11:16:09;102542.52;;;28.01;33.93
43394;BME280;62479;62.642;17.954;2022-08-25T11:18:45;102536.19;;;27.95;33.75
43394;BME280;62479;62.642;17.954;2022-08-25T11:21:20;102532.11;;;27.66;34.36
43394;BME280;62479;62.642;17.954;2022-08-25T11:23:56;102531.15;;;27.31;34.89
43394;BME280;62479;62.642;17.954;2022-08-25T11:26:29;102529.89;;;27.08;35.70
43394;BME280;62479;62.642;17.954;2022-08-25T11:29:03;102531.05;;;26.91;35.99
43394;BME280;62479;62.642;17.954;2022-08-25T11:31:38;102528.85;;;26.85;36.35
43394;BME280;62479;62.642;17.954;2022-08-25T11:34:08;102527.91;;;26.62;36.41
43394;BME280;62479;62.642;17.954;2022-08-25T11:36:41;102528.03;;;26.46;37.15
43394;BME280;62479;62.642;17.954;2022-08-25T11:39:15;102526.89;;;26.17;37.74
43394;BME280;62479;62.642;17.954;2022-08-25T11:41:59;102528.94;;;25.77;37.85
43394;BME280;62479;62.642;17.954;2022-08-25T11:44:45;102522.64;;;25.85;37.46
43394;BME280;62479;62.642;17.954;2022-08-25T11:47:34;102530.35;;;25.81;37.54
43394;BME280;62479;62.642;17.954;2022-08-25T11:50:07;102529.78;;;25.51;37.90
43394;BME280;62479;62.642;17.954;2022-08-25T11:52:43;102529.33;;;25.47;38.43
43394;BME280;62479;62.642;17.954;2022-08-25T11:55:16;102524.71;;;25.15;39.37
43394;BME280;62479;62.642;17.954;2022-08-25T11:57:48;102518.58;;;24.83;39.98
43394;BME280;62479;62.642;17.954;2022-08-25T12:00:36;102521.42;;;24.40;41.33
43394;BME280;62479;62.642;17.954;2022-08-25T12:07:28;102514.50;;;23.64;43.13
43394;BME280;62479;62.642;17.954;2022-08-25T12:10:17;102510.86;;;23.53;43.53
43394;BME280;62479;62.642;17.954;2022-08-25T12:13:00;102513.99;;;23.24;43.82
43394;BME280;62479;62.642;17.954;2022-08-25T12:15:53;102513.47;;;23.06;44.54
43394;BME280;62479;62.642;17.954;2022-08-25T12:18:44;102512.69;;;22.79;45.03
43394;BME280;62479;62.642;17.954;2022-08-25T12:25:52;102502.75;;;22.28;47.27
43394;BME280;62479;62.642;17.954;2022-08-25T12:28:36;102497.99;;;22.11;46.74
43394;BME280;62479;62.642;17.954;2022-08-25T12:31:18;102498.25;;;21.90;47.36
43394;BME280;62479;62.642;17.954;2022-08-25T12:34:02;102504.00;;;21.72;48.31
43394;BME280;62479;62.642;17.954;2022-08-25T12:36:35;102499.22;;;21.79;47.89
43394;BME280;62479;62.642;17.954;2022-08-25T12:39:15;102505.03;;;21.77;47.73
43394;BME280;62479;62.642;17.954;2022-08-25T12:41:55;102506.27;;;21.75;47.84
43394;BME280;62479;62.642;17.954;2022-08-25T12:44:38;102503.03;;;21.82;48.03
43394;BME280;62479;62.642;17.954;2022-08-25T12:47:25;102502.72;;;21.78;47.83
43394;BME280;62479;62.642;17.954;2022-08-25T12:50:26;102507.48;;;21.78;48.32
43394;BME280;62479;62.642;17.954;2022-08-25T12:53:02;102506.02;;;21.66;48.41
43394;BME280;62479;62.642;17.954;2022-08-25T12:55:37;102503.47;;;21.56;48.76
43394;BME280;62479;62.642;17.954;2022-08-25T12:58:24;102507.40;;;21.46;49.27
43394;BME280;62479;62.642;17.954;2022-08-25T13:01:35;102494.78;;;21.28;50.00
43394;BME280;62479;62.642;17.954;2022-08-25T13:04:47;102496.86;;;21.34;49.24
43394;BME280;62479;62.642;17.954;2022-08-25T13:07:45;102492.23;;;21.14;49.85
43394;BME280;62479;62.642;17.954;2022-08-25T13:10:24;102482.19;;;21.09;49.96
43394;BME280;62479;62.642;17.954;2022-08-25T13:13:02;102481.45;;;21.12;50.28
43394;BME280;62479;62.642;17.954;2022-08-25T13:15:35;102480.38;;;21.21;50.11
43394;BME280;62479;62.642;17.954;2022-08-25T13:18:22;102478.06;;;21.27;50.26
43394;BME280;62479;62.642;17.954;2022-08-25T13:20:59;102477.37;;;21.12;50.58
43394;BME280;62479;62.642;17.954;2022-08-25T13:23:29;102477.95;;;21.29;50.71
43394;BME280;62479;62.642;17.954;2022-08-25T13:25:59;102473.18;;;21.27;50.76
43394;BME280;62479;62.642;17.954;2022-08-25T13:28:36;102470.56;;;21.27;51.06
43394;BME280;62479;62.642;17.954;2022-08-25T13:31:12;102466.02;;;21.33;50.11
43394;BME280;62479;62.642;17.954;2022-08-25T13:33:49;102463.25;;;21.28;50.24
43394;BME280;62479;62.642;17.954;2022-08-25T13:36:18;102463.66;;;21.19;49.76
43394;BME280;62479;62.642;17.954;2022-08-25T13:38:48;102471.01;;;21.20;50.31
43394;BME280;62479;62.642;17.954;2022-08-25T13:41:20;102461.69;;;21.05;50.89
43394;BME280;62479;62.642;17.954;2022-08-25T13:43:51;102467.07;;;21.01;51.06
43394;BME280;62479;62.642;17.954;2022-08-25T13:46:22;102469.71;;;20.92;50.86
43394;BME280;62479;62.642;17.954;2022-08-25T13:49:02;102469.32;;;20.82;51.14
43394;BME280;62479;62.642;17.954;2022-08-25T13:51:37;102470.29;;;20.83;51.76
43394;BME280;62479;62.642;17.954;2022-08-25T13:54:19;102470.75;;;20.73;51.99
43394;BME280;62479;62.642;17.954;2022-08-25T13:56:50;102475.43;;;20.51;52.89
43394;BME280;62479;62.642;17.954;2022-08-25T13:59:23;102474.07;;;20.61;52.80
43394;BME280;62479;62.642;17.954;2022-08-25T14:01:53;102475.97;;;20.52;53.18
43394;BME280;62479;62.642;17.954;2022-08-25T14:04:29;102471.38;;;20.47;53.38
43394;BME280;62479;62.642;17.954;2022-08-25T14:07:25;102470.23;;;20.26;53.83
43394;BME280;62479;62.642;17.954;2022-08-25T14:09:56;102463.63;;;20.26;54.15
43394;BME280;62479;62.642;17.954;2022-08-25T14:12:29;102460.15;;;20.43;54.38
43394;BME280;62479;62.642;17.954;2022-08-25T14:15:03;102459.42;;;20.32;54.03
43394;BME280;62479;62.642;17.954;2022-08-25T14:17:34;102452.30;;;20.33;54.06
43394;BME280;62479;62.642;17.954;2022-08-25T14:20:04;102458.71;;;20.34;54.26
43394;BME280;62479;62.642;17.954;2022-08-25T14:22:33;102462.41;;;20.32;54.92
43394;BME280;62479;62.642;17.954;2022-08-25T14:25:02;102459.87;;;20.57;53.65
43394;BME280;62479;62.642;17.954;2022-08-25T14:27:30;102454.54;;;20.59;54.15
43394;BME280;62479;62.642;17.954;2022-08-25T14:29:59;102452.53;;;20.49;54.40
43394;BME280;62479;62.642;17.954;2022-08-25T14:32:27;102455.39;;;20.53;54.38
43394;BME280;62479;62.642;17.954;2022-08-25T14:34:57;102459.33;;;20.56;53.62
43394;BME280;62479;62.642;17.954;2022-08-25T14:37:26;102456.72;;;20.56;53.93
43394;BME280;62479;62.642;17.954;2022-08-25T14:39:54;102456.50;;;20.64;52.50
43394;BME280;62479;62.642;17.954;2022-08-25T14:42:23;102452.44;;;20.62;52.67
43394;BME280;62479;62.642;17.954;2022-08-25T14:44:51;102446.50;;;20.44;52.44
43394;BME280;62479;62.642;17.954;2022-08-25T14:47:20;102444.01;;;20.37;51.98
43394;BME280;62479;62.642;17.954;2022-08-25T14:49:48;102444.78;;;20.32;52.56
43394;BME280;62479;62.642;17.954;2022-08-25T14:52:20;102440.31;;;20.31;52.89
43394;BME280;62479;62.642;17.954;2022-08-25T14:54:48;102438.49;;;20.33;53.32
43394;BME280;62479;62.642;17.954;2022-08-25T14:57:17;102435.57;;;20.33;52.57
43394;BME280;62479;62.642;17.954;2022-08-25T14:59:45;102434.09;;;20.59;52.28
43394;BME280;62479;62.642;17.954;2022-08-25T15:02:16;102427.80;;;20.97;52.29
43394;BME280;62479;62.642;17.954;2022-08-25T15:04:49;102429.56;;;21.25;50.58
43394;BME280;62479;62.642;17.954;2022-08-25T15:07:17;102427.23;;;21.24;50.32
43394;BME280;62479;62.642;17.954;2022-08-25T15:09:46;102425.89;;;21.29;50.38
43394;BME280;62479;62.642;17.954;2022-08-25T15:12:15;102423.00;;;21.44;49.90
43394;BME280;62479;62.642;17.954;2022-08-25T15:14:44;102424.88;;;21.52;49.56
43394;BME280;62479;62.642;17.954;2022-08-25T15:17:14;102419.27;;;21.56;49.52
43394;BME280;62479;62.642;17.954;2022-08-25T15:19:44;102419.26;;;21.71;48.78
43394;BME280;62479;62.642;17.954;2022-08-25T15:22:13;102418.83;;;21.61;48.97
43394;BME280;62479;62.642;17.954;2022-08-25T15:24:41;102417.30;;;21.45;49.27
43394;BME280;62479;62.642;17.954;2022-08-25T15:27:11;102417.90;;;21.52;49.25
43394;BME280;62479;62.642;17.954;2022-08-25T15:29:40;102412.42;;;21.44;49.47
43394;BME280;62479;62.642;17.954;2022-08-25T15:32:09;102415.16;;;21.39;49.48
43394;BME280;62479;62.642;17.954;2022-08-25T15:34:37;102414.67;;;21.36;49.45
43394;BME280;62479;62.642;17.954;2022-08-25T15:37:07;102416.74;;;21.41;49.88
43394;BME280;62479;62.642;17.954;2022-08-25T15:39:38;102416.59;;;21.21;50.21
43394;BME280;62479;62.642;17.954;2022-08-25T15:42:08;102419.08;;;21.32;50.45
43394;BME280;62479;62.642;17.954;2022-08-25T15:44:38;102421.90;;;21.23;50.01
43394;BME280;62479;62.642;17.954;2022-08-25T15:47:08;102416.42;;;21.18;50.29
43394;BME280;62479;62.642;17.954;2022-08-25T15:49:36;102412.28;;;21.02;50.60
43394;BME280;62479;62.642;17.954;2022-08-25T15:52:05;102410.86;;;20.94;50.41
43394;BME280;62479;62.642;17.954;2022-08-25T15:54:35;102415.71;;;20.78;50.52
43394;BME280;62479;62.642;17.954;2022-08-25T15:57:04;102413.13;;;20.74;50.87
43394;BME280;62479;62.642;17.954;2022-08-25T15:59:43;102416.43;;;20.72;51.43
43394;BME280;62479;62.642;17.954;2022-08-25T16:15:15;102408.46;;;20.40;51.56
43394;BME280;62479;62.642;17.954;2022-08-25T16:17:44;102404.32;;;20.56;51.66
43394;BME280;62479;62.642;17.954;2022-08-25T16:20:15;102408.43;;;20.55;51.62
43394;BME280;62479;62.642;17.954;2022-08-25T16:22:43;102408.69;;;20.49;51.42
43394;BME280;62479;62.642;17.954;2022-08-25T16:25:12;102409.83;;;20.30;51.85
43394;BME280;62479;62.642;17.954;2022-08-25T16:27:40;102410.22;;;20.29;52.07
43394;BME280;62479;62.642;17.954;2022-08-25T16:30:11;102415.58;;;20.11;52.24
43394;BME280;62479;62.642;17.954;2022-08-25T16:32:40;102405.65;;;20.09;52.67
43394;BME280;62479;62.642;17.954;2022-08-25T16:35:10;102411.37;;;20.08;52.28
43394;BME280;62479;62.642;17.954;2022-08-25T16:37:39;102409.25;;;20.00;52.58
43394;BME280;62479;62.642;17.954;2022-08-25T16:40:09;102404.28;;;19.88;52.68
43394;BME280;62479;62.642;17.954;2022-08-25T16:42:38;102398.97;;;19.67;53.19
43394;BME280;62479;62.642;17.954;2022-08-25T16:45:07;102390.68;;;19.61;53.41
43394;BME280;62479;62.642;17.954;2022-08-25T16:47:36;102393.12;;;19.63;53.66
43394;BME280;62479;62.642;17.954;2022-08-25T16:50:07;102393.15;;;19.48;53.66
43394;BME280;62479;62.642;17.954;2022-08-25T16:52:37;102398.51;;;19.45;54.08
43394;BME280;62479;62.642;17.954;2022-08-25T16:55:07;102399.78;;;19.40;54.45
43394;BME280;62479;62.642;17.954;2022-08-25T16:57:35;102398.70;;;19.20;54.55
43394;BME280;62479;62.642;17.954;2022-08-25T17:00:07;102395.40;;;19.14;54.95
43394;BME280;62479;62.642;17.954;2022-08-25T17:02:37;102393.81;;;19.03;55.35
43394;BME280;62479;62.642;17.954;2022-08-25T17:05:11;102388.44;;;19.01;55.67
43394;BME280;62479;62.642;17.954;2022-08-25T17:07:39;102385.51;;;18.84;55.88
43394;BME280;62479;62.642;17.954;2022-08-25T17:10:08;102387.33;;;18.79;55.99
43394;BME280;62479;62.642;17.954;2022-08-25T17:12:36;102389.33;;;18.76;56.31
43394;BME280;62479;62.642;17.954;2022-08-25T17:15:12;102387.95;;;18.61;56.83
43394;BME280;62479;62.642;17.954;2022-08-25T17:17:41;102388.02;;;18.53;56.66
43394;BME280;62479;62.642;17.954;2022-08-25T17:20:10;102389.40;;;18.51;56.76
43394;BME280;62479;62.642;17.954;2022-08-25T17:22:38;102386.87;;;18.52;57.11
43394;BME280;62479;62.642;17.954;2022-08-25T17:25:09;102392.42;;;18.42;57.27
43394;BME280;62479;62.642;17.954;2022-08-25T17:27:37;102398.36;;;18.40;57.38
43394;BME280;62479;62.642;17.954;2022-08-25T17:30:08;102402.64;;;18.33;57.73
43394;BME280;62479;62.642;17.954;2022-08-25T17:32:36;102403.28;;;18.32;57.90
43394;BME280;62479;62.642;17.954;2022-08-25T17:35:06;102402.06;;;18.21;58.09
43394;BME280;62479;62.642;17.954;2022-08-25T17:37:35;102403.50;;;18.06;58.41
43394;BME280;62479;62.642;17.954;2022-08-25T17:40:06;102403.21;;;17.90;59.12
43394;BME280;62479;62.642;17.954;2022-08-25T17:42:37;102405.92;;;17.88;59.45
43394;BME280;62479;62.642;17.954;2022-08-25T17:45:06;102405.38;;;17.91;59.76
43394;BME280;62479;62.642;17.954;2022-08-25T17:47:35;102405.15;;;17.72;60.15
43394;BME280;62479;62.642;17.954;2022-08-25T17:50:04;102406.35;;;17.77;60.74
43394;BME280;62479;62.642;17.954;2022-08-25T17:52:34;102406.31;;;17.52;61.01
43394;BME280;62479;62.642;17.954;2022-08-25T17:55:02;102409.82;;;17.49;61.19
43394;BME280;62479;62.642;17.954;2022-08-25T17:57:31;102415.28;;;17.38;61.50
43394;BME280;62479;62.642;17.954;2022-08-25T17:59:59;102416.19;;;17.27;62.04
43394;BME280;62479;62.642;17.954;2022-08-25T18:02:27;102413.09;;;17.10;62.51
43394;BME280;62479;62.642;17.954;2022-08-25T18:04:57;102417.81;;;17.10;63.14
43394;BME280;62479;62.642;17.954;2022-08-25T18:07:26;102415.51;;;17.10;63.40